Terminal Aerodrome Forecast
Issued by NWS

Home | Current Version | Previous Version | Text Only | Print | Product List | Glossary On
Versions: 1 2 3 4 5 6 7 8 9 10 11 12 13 14 15 16 17 18
199
FTUS41 KBGM 301739
TAFELM
TAF
KELM 301739Z 3018/3118 VRB05KT P6SM SCT025 OVC050
      TEMPO 3018/3021 3SM SHRA BR OVC025
     FM302100 08005KT P6SM OVC040
     FM310500 VRB03KT 3SM -SHRA BR OVC025
      TEMPO 3108/3112 2SM SHRA BR OVC015
     FM311500 VRB04KT 5SM HZ OVC025=

USA.gov is the U.S. government's official web portal to all federal, state and local government web resources and services.